logo dgac
Lunes 27 de Septiembre del 2021
Buscar por aerodromo o helipuerto
Ingrese nombre de aeródromo, localidad o designador OACI:

Aeródromo: Balmaceda (PUB) (SCBA)

Ubicación: Balmaceda, XI Región, Chile (45º 54' 51'' S, 71º 41' 24'' W) Ver ubicación en el mapa

Pistas

Orientación Dimensión Pendiente Superficie Resistencia APCH THR RWY PAPI
09/27 2501 x 45 0,67 Hormigón PCN 47 R/B/X/T No
Horas de operación HJ
Elevación 509 m / 1670 ft
Otra Información Adm : D.G.A.C
Uso : PUB
Ubicado : 500 m S de Balmaceda
TEL 672272126 - 672272104 -672272105
email : aro.balmaceda@dgac.gob.cl

Otra información ver AIP-Chile Volumen I AD 3.9-2.1-B


CCCM/FCCV Descargar
andera de Chile
Mapa de Balmaceda (PUB) (SCBA)

Último METAR

METAR SCBA 262100Z 29019KT 9999 FEW040 07/M01 Q1017

Último TAF

TAF SCBA 262215Z 2700/2724 30012KT CAVOK TN00/2711Z TX09/2718Z BECMG 2703/2705 BKN025 BECMG 2713/2715 30022KT SCT035 TEMPO 2717/2721 30022G32KT FEW045

Últimas fotos cámaras

Imagen aerodromo Balmaceda (PUB) (SCBA) Este tomada el 27-09-2021 12:21:02 Imagen aerodromo Balmaceda (PUB) (SCBA) Oeste tomada el 27-09-2021 12:21:06

Último NOTAM

C4250/21 NOTAMN Q)SCTZ/QFFCH/IV/NBO/A/000/999/4555S07141W005 A)SCBA B)2109271100 C)2109302359 D)DLY SEP 27/29/30 E)SSEI CAT 5 CHG A CAT 7